Sea Cloud — 9HOM2 — position and weather

sailwx.info

Track history (hours):
 
Tides and Currents Weather Stations Pressure Air Temp Water Temp Dewpoint Dewpoint Depression Visibility Wind Speed Wind Dir Waves Ship Positions

Sea Cloud

Ship's website: http://www.seacloud.com/en/the-ships/sea-cloud.html

Last reported at 2017-Mar-19 23:26 UTC. Time now 2017-Mar-25 04:00 UTC.
Position N 15°38' W 061°40'.

Length 110 m; draft 5.2 m.

Type: Ship. MMSI: 256084000.

Date/timePositionNaut miles runAvg speedWind from/ knotsBaromVisibWave heightAir tempDewpointWater temp
2017-Mar-19 23:26N 15°38' W 061°40'9 9.9
2017-Mar-19 22:33N 15°47' W 061°43'1210.4
2017-Mar-19 21:25N 15°58' W 061°47'6 5.6
2017-Mar-19 20:26N 16°03' W 061°48'2 2.8
2017-Mar-19 19:33N 16°01' W 061°47'6 4.7
2017-Mar-19 18:19N 15°56' W 061°43'5 0.4
2017-Mar-19 03:22N 15°53' W 061°39'7 8.3
2017-Mar-19 02:33N 15°55' W 061°46'52 5.8
2017-Mar-18 17:33N 16°22' W 062°32'5 5.0
2017-Mar-18 16:33N 16°27' W 062°31'5 4.9
2017-Mar-18 15:32N 16°32' W 062°30'5 4.7
2017-Mar-18 14:33N 16°36' W 062°28'4 3.7
2017-Mar-18 13:33N 16°40' W 062°27'4 4.2
2017-Mar-18 12:33N 16°44' W 062°27'160 4.0
2017-Mar-16 20:34N 18°31' W 064°31'9 9.0
2017-Mar-16 19:34N 18°27' W 064°40'6 5.3
2017-Mar-16 18:29N 18°26' W 064°46'0 0.0
2017-Mar-16 17:29N 18°26' W 064°46'0 0.0
2017-Mar-16 16:23N 18°26' W 064°46'0 0.0
2017-Mar-16 15:29N 18°26' W 064°46'0 0.0
2017-Mar-16 14:29N 18°26' W 064°46'0 0.0
2017-Mar-16 13:29N 18°26' W 064°46'0 0.0
2017-Mar-16 12:29N 18°26' W 064°46'0 0.0
2017-Mar-16 11:33N 18°26' W 064°46'1 0.7
2017-Mar-16 10:28N 18°26' W 064°45'0 0.0
2017-Mar-16 09:22N 18°26' W 064°45'0 0.0
2017-Mar-16 08:28N 18°26' W 064°45'0 0.0
2017-Mar-16 07:28N 18°26' W 064°45'0 0.0
2017-Mar-16 06:28N 18°26' W 064°45'0 0.0
2017-Mar-16 05:28N 18°26' W 064°45'0 0.0
2017-Mar-16 04:28N 18°26' W 064°45'0 0.0
2017-Mar-16 03:28N 18°26' W 064°45'0 0.0
2017-Mar-16 02:28N 18°26' W 064°45'0 0.0
2017-Mar-16 01:28N 18°26' W 064°45'0 0.0
2017-Mar-16 00:22N 18°26' W 064°45'0 0.0
2017-Mar-15 23:28N 18°26' W 064°45'0 0.0
2017-Mar-15 22:28N 18°26' W 064°45'1 1.6
2017-Mar-15 21:33N 18°25' W 064°45'6 5.7
2017-Mar-15 20:33N 18°22' W 064°40'5 5.0
2017-Mar-15 19:33N 18°23' W 064°35'4 3.9
2017-Mar-15 18:33N 18°24' W 064°31'10 0.5
2017-Mar-14 21:27N 18°33' W 064°27'2 1.5
2017-Mar-14 20:03N 18°32' W 064°25'  
2017-Mar-12 05:06N 18°32' W 064°20'7 0.6
2017-Mar-11 17:32N 18°29' W 064°26'3 0.1
2017-Mar-10 20:26N 18°31' W 064°25'8 9.0
2017-Mar-10 19:33N 18°31' W 064°33'9 9.2
2017-Mar-10 18:33N 18°26' W 064°41'4 3.9
2017-Mar-10 17:29N 18°26' W 064°46'0 0.0
2017-Mar-10 16:29N 18°26' W 064°46'0 0.0
2017-Mar-10 15:29N 18°26' W 064°46'0 0.0
2017-Mar-10 14:23N 18°26' W 064°46'0 0.0
2017-Mar-10 13:29N 18°26' W 064°46'0 0.0
2017-Mar-10 12:17N 18°26' W 064°46'0 0.0
2017-Mar-10 11:29N 18°26' W 064°46'0 0.0
2017-Mar-10 10:23N 18°26' W 064°46'0 0.0
2017-Mar-10 09:29N 18°26' W 064°46'0 0.0
2017-Mar-10 08:29N 18°26' W 064°46'0 0.0
2017-Mar-10 06:19N 18°26' W 064°46'0 0.0
2017-Mar-10 05:29N 18°26' W 064°46'0 0.0
2017-Mar-10 04:29N 18°26' W 064°46'0 0.0
2017-Mar-10 03:29N 18°26' W 064°46'0 0.0
2017-Mar-10 02:29N 18°26' W 064°46'0 0.0
2017-Mar-10 01:29N 18°26' W 064°46'0 0.0
2017-Mar-10 00:29N 18°26' W 064°46'0 0.0
2017-Mar-09 23:29N 18°26' W 064°46'  
Track history (hours):
 
Tides and Currents Weather Stations Pressure Air Temp Water Temp Dewpoint Dewpoint Depression Visibility Wind Speed Wind Dir Waves Ship Positions

Sea Cloud

Ship's website: http://www.seacloud.com/en/the-ships/sea-cloud.html

Last reported at 2017-Mar-19 23:26 UTC. Time now 2017-Mar-25 04:00 UTC.
Position N 15°38' W 061°40'.

Length 110 m; draft 5.2 m.

Type: Ship. MMSI: 256084000.

Date/timePositionNaut miles runAvg speedWind from/ knotsBaromVisibWave heightAir tempDewpointWater temp
2017-Mar-19 23:26N 15°38' W 061°40'9 9.9
2017-Mar-19 22:33N 15°47' W 061°43'1210.4
2017-Mar-19 21:25N 15°58' W 061°47'6 5.6
2017-Mar-19 20:26N 16°03' W 061°48'2 2.8
2017-Mar-19 19:33N 16°01' W 061°47'6 4.7
2017-Mar-19 18:19N 15°56' W 061°43'5 0.4
2017-Mar-19 03:22N 15°53' W 061°39'7 8.3
2017-Mar-19 02:33N 15°55' W 061°46'52 5.8
2017-Mar-18 17:33N 16°22' W 062°32'5 5.0
2017-Mar-18 16:33N 16°27' W 062°31'5 4.9
2017-Mar-18 15:32N 16°32' W 062°30'5 4.7
2017-Mar-18 14:33N 16°36' W 062°28'4 3.7
2017-Mar-18 13:33N 16°40' W 062°27'4 4.2
2017-Mar-18 12:33N 16°44' W 062°27'160 4.0
2017-Mar-16 20:34N 18°31' W 064°31'9 9.0
2017-Mar-16 19:34N 18°27' W 064°40'6 5.3
2017-Mar-16 18:29N 18°26' W 064°46'0 0.0
2017-Mar-16 17:29N 18°26' W 064°46'0 0.0
2017-Mar-16 16:23N 18°26' W 064°46'0 0.0
2017-Mar-16 15:29N 18°26' W 064°46'0 0.0
2017-Mar-16 14:29N 18°26' W 064°46'0 0.0
2017-Mar-16 13:29N 18°26' W 064°46'0 0.0
2017-Mar-16 12:29N 18°26' W 064°46'0 0.0
2017-Mar-16 11:33N 18°26' W 064°46'1 0.7
2017-Mar-16 10:28N 18°26' W 064°45'0 0.0
2017-Mar-16 09:22N 18°26' W 064°45'0 0.0
2017-Mar-16 08:28N 18°26' W 064°45'0 0.0
2017-Mar-16 07:28N 18°26' W 064°45'0 0.0
2017-Mar-16 06:28N 18°26' W 064°45'0 0.0
2017-Mar-16 05:28N 18°26' W 064°45'0 0.0
2017-Mar-16 04:28N 18°26' W 064°45'0 0.0
2017-Mar-16 03:28N 18°26' W 064°45'0 0.0
2017-Mar-16 02:28N 18°26' W 064°45'0 0.0
2017-Mar-16 01:28N 18°26' W 064°45'0 0.0
2017-Mar-16 00:22N 18°26' W 064°45'0 0.0
2017-Mar-15 23:28N 18°26' W 064°45'0 0.0
2017-Mar-15 22:28N 18°26' W 064°45'1 1.6
2017-Mar-15 21:33N 18°25' W 064°45'6 5.7
2017-Mar-15 20:33N 18°22' W 064°40'5 5.0
2017-Mar-15 19:33N 18°23' W 064°35'4 3.9
2017-Mar-15 18:33N 18°24' W 064°31'10 0.5
2017-Mar-14 21:27N 18°33' W 064°27'2 1.5
2017-Mar-14 20:03N 18°32' W 064°25'  
2017-Mar-12 05:06N 18°32' W 064°20'7 0.6
2017-Mar-11 17:32N 18°29' W 064°26'3 0.1
2017-Mar-10 20:26N 18°31' W 064°25'8 9.0
2017-Mar-10 19:33N 18°31' W 064°33'9 9.2
2017-Mar-10 18:33N 18°26' W 064°41'4 3.9
2017-Mar-10 17:29N 18°26' W 064°46'0 0.0
2017-Mar-10 16:29N 18°26' W 064°46'0 0.0
2017-Mar-10 15:29N 18°26' W 064°46'0 0.0
2017-Mar-10 14:23N 18°26' W 064°46'0 0.0
2017-Mar-10 13:29N 18°26' W 064°46'0 0.0
2017-Mar-10 12:17N 18°26' W 064°46'0 0.0
2017-Mar-10 11:29N 18°26' W 064°46'0 0.0
2017-Mar-10 10:23N 18°26' W 064°46'0 0.0
2017-Mar-10 09:29N 18°26' W 064°46'0 0.0
2017-Mar-10 08:29N 18°26' W 064°46'0 0.0
2017-Mar-10 06:19N 18°26' W 064°46'0 0.0
2017-Mar-10 05:29N 18°26' W 064°46'0 0.0
2017-Mar-10 04:29N 18°26' W 064°46'0 0.0
2017-Mar-10 03:29N 18°26' W 064°46'0 0.0
2017-Mar-10 02:29N 18°26' W 064°46'0 0.0
2017-Mar-10 01:29N 18°26' W 064°46'0 0.0
2017-Mar-10 00:29N 18°26' W 064°46'0 0.0
2017-Mar-09 23:29N 18°26' W 064°46'  

Dump ship's entire track history